Brewington Woods, Indiana
Current Conditions -  °F | °C
As of 4:53 PM on Thursday 27 Nov 2014 (Local Time) from KMIE Reporting Station
Overcast Overcast  
Wind Chill: 16°   Ceiling: 2300
Heat Index: 28°   Visibility: 8mi
Dew Point: 21°   Wind: 16mph
Humidity: 75%   Direction: 290°WNW
Pressure: 30.32"   Gusts: NA
Location:  40.2341°N, 85.4639°W
Report Text: KMIE 272153Z 29014KT 8SM BKN023 OVC029 M02/M06 A3032 RMK AO2 SLP274 T10221061
Loading
Personal Weather Stations






























Interactive Weather Map New forecast layout! Learn more

10-Day Weather Forecast

Advertisements
Track Severe Weather on mobile